createdAt,value
2018-04-30T00:00:58.364Z,0.00
2018-04-30T00:01:58.329Z,0.00
2018-04-30T00:02:59.046Z,0.00
2018-04-30T00:03:58.340Z,0.00
2018-04-30T00:04:58.351Z,0.00
2018-04-30T00:05:58.350Z,0.00
2018-04-30T00:06:58.348Z,0.00
2018-04-30T00:07:58.351Z,0.00
2018-04-30T00:08:58.349Z,0.00
2018-04-30T00:09:58.354Z,0.00
2018-04-30T00:10:58.355Z,0.00
2018-04-30T00:11:58.427Z,0.00
2018-04-30T00:12:58.371Z,0.00
2018-04-30T00:13:58.375Z,0.00
2018-04-30T00:14:58.379Z,0.00
2018-04-30T00:15:58.379Z,0.00
2018-04-30T00:16:58.398Z,0.00
2018-04-30T00:17:58.387Z,0.00
2018-04-30T00:18:58.394Z,0.00
2018-04-30T00:19:58.385Z,0.00
2018-04-30T00:20:58.391Z,0.00
2018-04-30T00:21:59.055Z,0.00
2018-04-30T00:22:58.398Z,0.00
2018-04-30T00:23:58.404Z,0.00
2018-04-30T00:24:58.401Z,0.00
2018-04-30T00:25:58.402Z,0.00
2018-04-30T00:26:59.060Z,0.00
2018-04-30T00:27:58.410Z,0.00
2018-04-30T00:28:58.409Z,0.00
2018-04-30T00:29:58.422Z,0.00
2018-04-30T00:30:59.165Z,0.00
2018-04-30T00:31:58.421Z,0.00
2018-04-30T00:32:58.432Z,0.00
2018-04-30T00:33:58.415Z,0.00
2018-04-30T00:34:58.462Z,0.00
2018-04-30T00:35:58.428Z,0.00
2018-04-30T00:36:58.435Z,0.00
2018-04-30T00:37:58.439Z,0.00
2018-04-30T00:38:58.431Z,0.00
2018-04-30T00:39:59.059Z,0.00
2018-04-30T00:40:58.436Z,0.00
2018-04-30T00:41:58.446Z,0.00
2018-04-30T00:42:58.452Z,0.00
2018-04-30T00:43:58.444Z,0.00
2018-04-30T00:44:58.459Z,0.00
2018-04-30T00:45:58.464Z,0.00
2018-04-30T00:46:58.448Z,0.00
2018-04-30T00:47:58.453Z,0.00
2018-04-30T00:48:58.463Z,0.00
2018-04-30T00:49:58.473Z,0.00
2018-04-30T00:50:58.472Z,0.00
2018-04-30T00:51:58.473Z,0.00
2018-04-30T00:52:58.485Z,0.00
2018-04-30T00:53:58.478Z,0.00
2018-04-30T00:54:58.477Z,0.00
2018-04-30T00:55:58.489Z,0.00
2018-04-30T00:56:58.478Z,0.00
2018-04-30T00:57:58.493Z,0.00
2018-04-30T00:58:58.486Z,0.00
2018-04-30T00:59:58.496Z,0.00
2018-04-30T01:00:58.527Z,0.00
2018-04-30T01:01:58.493Z,0.00
2018-04-30T01:02:58.514Z,0.00
2018-04-30T01:03:58.495Z,0.00
2018-04-30T01:04:58.501Z,0.00
2018-04-30T01:05:58.511Z,0.00
2018-04-30T01:06:58.508Z,0.00
2018-04-30T01:07:58.508Z,0.00
2018-04-30T01:08:58.515Z,0.00
2018-04-30T01:09:58.524Z,0.00
2018-04-30T01:10:58.529Z,0.00
2018-04-30T01:11:58.525Z,0.00
2018-04-30T01:12:58.526Z,0.00
2018-04-30T01:13:58.529Z,0.00
2018-04-30T01:14:58.528Z,0.00
2018-04-30T01:15:59.073Z,0.00
2018-04-30T01:16:58.538Z,0.00
2018-04-30T01:17:58.536Z,0.00
2018-04-30T01:18:58.540Z,0.00
2018-04-30T01:19:58.535Z,0.00
2018-04-30T01:20:58.539Z,0.00
2018-04-30T01:21:58.545Z,0.00
2018-04-30T01:22:58.545Z,0.00
2018-04-30T01:23:58.591Z,0.00
2018-04-30T01:24:58.540Z,0.00
2018-04-30T01:25:58.552Z,0.00
2018-04-30T01:26:58.564Z,0.00
2018-04-30T01:27:58.566Z,0.00
2018-04-30T01:28:58.563Z,0.00
2018-04-30T01:29:58.569Z,0.00
2018-04-30T01:30:58.561Z,0.00
2018-04-30T01:31:58.578Z,0.00
2018-04-30T01:32:58.572Z,0.00
2018-04-30T01:33:59.076Z,0.00
2018-04-30T01:34:58.594Z,0.00
2018-04-30T01:35:58.578Z,0.00
2018-04-30T01:36:58.568Z,0.00
2018-04-30T01:37:58.579Z,0.00
2018-04-30T01:38:58.579Z,0.00
2018-04-30T01:39:58.605Z,0.00
2018-04-30T01:40:58.594Z,0.00
2018-04-30T01:41:58.594Z,0.00
2018-04-30T01:42:58.594Z,0.00
2018-04-30T01:43:58.613Z,0.00
2018-04-30T01:44:58.598Z,0.00
2018-04-30T01:45:58.621Z,0.00
2018-04-30T01:46:58.627Z,0.00
2018-04-30T01:47:58.603Z,0.00
2018-04-30T01:48:58.595Z,0.00
2018-04-30T01:49:58.608Z,0.00
2018-04-30T01:50:58.632Z,0.00
2018-04-30T01:51:58.626Z,0.00
2018-04-30T01:52:58.683Z,0.00
2018-04-30T01:53:58.623Z,0.00
2018-04-30T01:54:58.644Z,0.00
2018-04-30T01:55:58.639Z,0.00
2018-04-30T01:56:58.643Z,0.00
2018-04-30T01:57:58.619Z,0.00
2018-04-30T01:58:58.623Z,0.00
2018-04-30T01:59:58.632Z,0.00
2018-04-30T02:00:58.635Z,0.00
2018-04-30T02:01:58.659Z,0.00
2018-04-30T02:02:58.641Z,0.00
2018-04-30T02:03:58.672Z,0.00
2018-04-30T02:04:58.676Z,0.00
2018-04-30T02:05:58.688Z,0.00
2018-04-30T02:06:58.667Z,0.00
2018-04-30T02:07:58.668Z,0.00
2018-04-30T02:08:58.666Z,0.00
2018-04-30T02:09:58.639Z,0.00
2018-04-30T02:10:58.650Z,0.00
2018-04-30T02:11:58.656Z,0.00
2018-04-30T02:12:58.694Z,0.00
2018-04-30T02:13:58.667Z,0.00
2018-04-30T02:14:58.662Z,0.00
2018-04-30T02:16:26.655Z,0.00
2018-04-30T02:16:58.676Z,0.00
2018-04-30T02:17:58.680Z,0.00
2018-04-30T02:18:58.672Z,0.00
2018-04-30T02:21:30.815Z,0.00
2018-04-30T02:22:30.791Z,0.00
2018-04-30T02:23:30.785Z,0.00
2018-04-30T02:24:30.802Z,0.00
2018-04-30T02:25:30.791Z,0.00
2018-04-30T02:26:30.785Z,0.00
2018-04-30T02:27:30.796Z,0.00
2018-04-30T02:28:30.797Z,0.00
2018-04-30T02:29:32.766Z,0.00
2018-04-30T02:30:30.804Z,0.00
2018-04-30T02:31:32.270Z,0.00
2018-04-30T02:32:30.853Z,0.00
2018-04-30T02:34:30.819Z,0.00
2018-04-30T02:35:30.809Z,0.00
2018-04-30T02:36:30.819Z,0.00
2018-04-30T02:37:30.814Z,0.00
2018-04-30T02:38:30.822Z,0.00
2018-04-30T02:39:30.824Z,0.00
2018-04-30T02:40:30.827Z,0.00
2018-04-30T02:41:30.827Z,0.00
2018-04-30T02:42:30.828Z,0.00
2018-04-30T02:43:30.822Z,0.00
2018-04-30T02:44:30.835Z,0.00
2018-04-30T02:45:31.783Z,0.00
2018-04-30T02:46:30.895Z,0.00
2018-04-30T02:47:30.839Z,0.00
2018-04-30T02:48:30.832Z,0.00
2018-04-30T02:49:30.836Z,0.00
2018-04-30T02:50:30.901Z,0.00
2018-04-30T02:51:30.846Z,0.00
2018-04-30T02:52:30.850Z,0.00
2018-04-30T02:53:30.849Z,0.00
2018-04-30T02:54:30.860Z,0.00
2018-04-30T02:55:30.862Z,0.00
2018-04-30T02:56:30.870Z,0.00
2018-04-30T02:57:30.868Z,0.00
2018-04-30T02:58:30.864Z,0.00
2018-04-30T02:59:30.874Z,0.00
2018-04-30T03:00:30.855Z,0.00
2018-04-30T03:01:30.871Z,0.00
2018-04-30T03:02:30.864Z,0.00
2018-04-30T03:03:30.885Z,0.00
2018-04-30T03:04:30.881Z,0.00
2018-04-30T03:05:30.877Z,0.00
2018-04-30T03:06:30.874Z,0.00
2018-04-30T03:07:30.881Z,0.00
2018-04-30T03:08:30.897Z,0.00
2018-04-30T03:09:30.890Z,0.00
2018-04-30T03:10:30.887Z,0.00
2018-04-30T03:11:30.886Z,0.00
2018-04-30T03:12:30.897Z,0.00
2018-04-30T03:13:30.902Z,0.00
2018-04-30T03:14:30.901Z,0.00
2018-04-30T03:15:30.914Z,0.00
2018-04-30T03:16:30.912Z,0.00
2018-04-30T03:17:30.909Z,0.00
2018-04-30T03:18:30.926Z,0.00
2018-04-30T03:19:30.924Z,0.00
2018-04-30T03:20:30.913Z,0.00
2018-04-30T03:21:30.945Z,0.00
2018-04-30T03:22:30.909Z,0.00
2018-04-30T03:23:30.918Z,0.00
2018-04-30T03:24:30.918Z,0.00
2018-04-30T03:25:30.971Z,0.00
2018-04-30T03:26:30.924Z,0.00
2018-04-30T03:27:31.872Z,0.00
2018-04-30T03:28:30.918Z,0.00
2018-04-30T03:29:30.922Z,0.00
2018-04-30T03:30:30.947Z,0.00
2018-04-30T03:31:30.929Z,4.00
2018-04-30T03:32:30.934Z,4.00
2018-04-30T03:33:30.955Z,4.00
2018-04-30T03:34:30.932Z,0.00
2018-04-30T03:35:30.932Z,4.00
2018-04-30T03:36:30.950Z,4.00
2018-04-30T03:37:30.962Z,4.00
2018-04-30T03:38:31.034Z,4.00
2018-04-30T03:39:30.954Z,4.00
2018-04-30T03:40:30.973Z,8.00
2018-04-30T03:41:30.951Z,8.00
2018-04-30T03:42:30.948Z,8.00
2018-04-30T03:43:30.955Z,8.00
2018-04-30T03:44:30.957Z,8.00
2018-04-30T03:45:30.970Z,12.00
2018-04-30T03:46:30.957Z,12.00
2018-04-30T03:47:30.965Z,12.00
2018-04-30T03:48:30.957Z,16.00
2018-04-30T03:49:30.980Z,20.00
2018-04-30T03:50:30.974Z,20.00
2018-04-30T03:51:30.972Z,24.00
2018-04-30T03:52:30.973Z,24.00
2018-04-30T03:53:30.970Z,24.00
2018-04-30T03:54:30.977Z,28.00
2018-04-30T03:55:31.013Z,28.00
2018-04-30T03:56:30.993Z,32.00
2018-04-30T03:57:30.987Z,32.00
2018-04-30T03:58:31.003Z,36.00
2018-04-30T03:59:31.003Z,44.00
2018-04-30T04:00:30.992Z,40.00
2018-04-30T04:01:30.989Z,48.00
2018-04-30T04:02:31.005Z,60.00
2018-04-30T04:03:31.019Z,56.00
2018-04-30T04:04:31.000Z,60.00
2018-04-30T04:05:31.009Z,68.00
2018-04-30T04:06:31.000Z,56.00
2018-04-30T04:07:31.006Z,68.00
2018-04-30T04:08:31.043Z,64.00
2018-04-30T04:09:31.015Z,64.00
2018-04-30T04:10:31.004Z,72.00
2018-04-30T04:11:31.019Z,76.00
2018-04-30T04:12:31.009Z,80.00
2018-04-30T04:13:31.031Z,84.00
2018-04-30T04:14:31.016Z,92.00
2018-04-30T04:15:31.016Z,96.00
2018-04-30T04:16:31.024Z,108.00
2018-04-30T04:17:31.029Z,120.00
2018-04-30T04:18:31.033Z,120.00
2018-04-30T04:19:31.795Z,120.00
2018-04-30T04:20:31.032Z,140.00
2018-04-30T04:21:31.045Z,152.00
2018-04-30T04:22:31.043Z,164.00
2018-04-30T04:23:31.043Z,184.00
2018-04-30T04:24:31.050Z,196.00
2018-04-30T04:25:31.043Z,208.00
2018-04-30T04:26:31.043Z,228.00
2018-04-30T04:27:31.054Z,240.00
2018-04-30T04:28:31.042Z,264.00
2018-04-30T04:29:31.061Z,284.00
2018-04-30T04:30:31.074Z,300.00
2018-04-30T04:31:31.065Z,312.00
2018-04-30T04:32:31.181Z,332.00
2018-04-30T04:33:31.071Z,344.00
2018-04-30T04:34:31.063Z,344.00
2018-04-30T04:35:31.072Z,324.00
2018-04-30T04:36:31.077Z,308.00
2018-04-30T04:37:31.080Z,344.00
2018-04-30T04:38:31.070Z,360.00
2018-04-30T04:39:31.070Z,376.00
2018-04-30T04:40:31.072Z,468.00
2018-04-30T04:41:31.078Z,604.00
2018-04-30T04:42:31.084Z,640.00
2018-04-30T04:43:31.080Z,560.00
2018-04-30T04:44:31.085Z,492.00
2018-04-30T04:45:31.173Z,616.00
2018-04-30T04:46:31.085Z,764.00
2018-04-30T04:47:31.102Z,744.00
2018-04-30T04:48:31.095Z,472.00
2018-04-30T04:49:31.112Z,424.00
2018-04-30T04:50:31.092Z,572.00
2018-04-30T04:51:31.111Z,616.00
2018-04-30T04:52:31.112Z,632.00
2018-04-30T04:53:31.101Z,624.00
2018-04-30T04:54:31.097Z,628.00
2018-04-30T04:55:31.096Z,584.00
2018-04-30T04:56:31.106Z,556.00
2018-04-30T04:57:31.109Z,708.00
2018-04-30T04:58:31.117Z,668.00
2018-04-30T04:59:31.114Z,632.00
2018-04-30T05:00:31.132Z,768.00
2018-04-30T05:01:31.116Z,800.00
2018-04-30T05:02:31.113Z,780.00
2018-04-30T05:03:31.120Z,772.00
2018-04-30T05:04:31.128Z,852.00
2018-04-30T05:05:31.123Z,792.00
2018-04-30T05:06:31.139Z,812.00
2018-04-30T05:07:31.128Z,772.00
2018-04-30T05:08:31.146Z,740.00
2018-04-30T05:09:31.134Z,812.00
2018-04-30T05:10:31.137Z,796.00
2018-04-30T05:11:31.140Z,744.00
2018-04-30T05:12:31.153Z,828.00
2018-04-30T05:13:31.147Z,700.00
2018-04-30T05:14:31.146Z,648.00
2018-04-30T05:15:31.147Z,816.00
2018-04-30T05:16:31.194Z,824.00
2018-04-30T05:17:31.147Z,940.00
2018-04-30T05:18:31.152Z,1012.00
2018-04-30T05:19:31.159Z,856.00
2018-04-30T05:20:31.160Z,840.00
2018-04-30T05:21:31.167Z,796.00
2018-04-30T05:22:31.177Z,884.00
2018-04-30T05:23:31.160Z,904.00
2018-04-30T05:24:31.168Z,920.00
2018-04-30T05:25:31.164Z,944.00
2018-04-30T05:26:31.816Z,924.00
2018-04-30T05:27:31.176Z,952.00
2018-04-30T05:28:31.222Z,1020.00
2018-04-30T05:29:31.189Z,936.00
2018-04-30T05:30:31.189Z,1060.00
2018-04-30T05:31:31.195Z,932.00
2018-04-30T05:32:31.178Z,796.00
2018-04-30T05:33:31.186Z,720.00
2018-04-30T05:34:31.184Z,672.00
2018-04-30T05:35:31.200Z,688.00
2018-04-30T05:36:31.201Z,692.00
2018-04-30T05:37:31.196Z,724.00
2018-04-30T05:38:31.239Z,892.00
2018-04-30T05:39:31.327Z,1144.00
2018-04-30T05:40:31.217Z,1232.00
2018-04-30T05:41:31.208Z,1212.00
2018-04-30T05:42:31.234Z,1348.00
2018-04-30T05:43:31.211Z,1420.00
2018-04-30T05:44:31.203Z,1544.00
2018-04-30T05:45:31.217Z,1532.00
2018-04-30T05:46:31.230Z,1356.00
2018-04-30T05:47:31.227Z,1492.00
2018-04-30T05:48:31.265Z,1216.00
2018-04-30T05:49:31.219Z,1328.00
2018-04-30T05:50:31.232Z,1000.00
2018-04-30T05:51:31.234Z,1272.00
2018-04-30T05:52:31.230Z,1056.00
2018-04-30T05:53:31.257Z,992.00
2018-04-30T05:54:31.244Z,956.00
2018-04-30T05:55:31.239Z,904.00
2018-04-30T05:56:31.308Z,796.00
2018-04-30T05:57:31.822Z,812.00
2018-04-30T05:58:31.234Z,724.00
2018-04-30T05:59:31.237Z,748.00
2018-04-30T06:00:31.290Z,744.00
2018-04-30T06:01:31.269Z,732.00
2018-04-30T06:02:31.263Z,740.00
2018-04-30T06:03:31.251Z,788.00
2018-04-30T06:04:31.256Z,660.00
2018-04-30T06:05:31.265Z,672.00
2018-04-30T06:06:31.259Z,704.00
2018-04-30T06:07:31.256Z,920.00
2018-04-30T06:08:31.261Z,960.00
2018-04-30T06:09:31.276Z,964.00
2018-04-30T06:10:31.326Z,852.00
2018-04-30T06:11:31.266Z,1024.00
2018-04-30T06:12:31.343Z,1228.00
2018-04-30T06:13:31.274Z,832.00
2018-04-30T06:14:31.275Z,952.00
2018-04-30T06:15:31.297Z,896.00
2018-04-30T06:16:31.277Z,920.00
2018-04-30T06:17:31.353Z,976.00
2018-04-30T06:18:31.301Z,884.00
2018-04-30T06:19:31.285Z,736.00
2018-04-30T06:20:31.424Z,676.00
2018-04-30T06:21:31.289Z,720.00
2018-04-30T06:22:31.285Z,672.00
2018-04-30T06:23:31.308Z,712.00
2018-04-30T06:24:31.325Z,592.00
2018-04-30T06:25:31.302Z,720.00
2018-04-30T06:26:31.320Z,664.00
2018-04-30T06:27:31.341Z,644.00
2018-04-30T06:28:31.324Z,692.00
2018-04-30T06:29:31.317Z,680.00
2018-04-30T06:30:31.832Z,700.00
2018-04-30T06:31:31.338Z,908.00
2018-04-30T06:32:31.373Z,1124.00
2018-04-30T06:33:31.323Z,1004.00
2018-04-30T06:34:32.045Z,996.00
2018-04-30T06:35:31.329Z,964.00
2018-04-30T06:36:31.345Z,888.00
2018-04-30T06:37:31.336Z,1052.00
2018-04-30T06:38:31.335Z,892.00
2018-04-30T06:39:31.328Z,1112.00
2018-04-30T06:40:31.348Z,1400.00
2018-04-30T06:41:31.356Z,1328.00
2018-04-30T06:42:31.343Z,1040.00
2018-04-30T06:43:31.406Z,816.00
2018-04-30T06:44:31.370Z,1052.00
2018-04-30T06:45:31.349Z,988.00
2018-04-30T06:46:31.395Z,1228.00
2018-04-30T06:47:31.460Z,1192.00
2018-04-30T06:48:31.840Z,1008.00
2018-04-30T06:49:31.407Z,1236.00
2018-04-30T06:50:31.367Z,1024.00
2018-04-30T06:51:31.371Z,900.00
2018-04-30T06:52:31.371Z,1016.00
2018-04-30T06:53:31.436Z,696.00
2018-04-30T06:54:31.402Z,820.00
2018-04-30T06:55:31.531Z,672.00
2018-04-30T06:56:31.370Z,880.00
2018-04-30T06:57:31.378Z,964.00
2018-04-30T06:58:31.383Z,700.00
2018-04-30T06:59:31.384Z,696.00
2018-04-30T07:00:31.396Z,652.00
2018-04-30T07:01:31.566Z,696.00
2018-04-30T07:02:31.399Z,740.00
2018-04-30T07:03:31.420Z,664.00
2018-04-30T07:04:31.419Z,624.00
2018-04-30T07:05:31.398Z,516.00
2018-04-30T07:06:31.541Z,472.00
2018-04-30T07:07:31.761Z,944.00
2018-04-30T07:08:31.930Z,1468.00
2018-04-30T07:09:31.571Z,1768.00
2018-04-30T07:10:31.422Z,1792.00
2018-04-30T07:11:31.450Z,2604.00
2018-04-30T07:12:31.473Z,3508.00
2018-04-30T07:13:31.528Z,3616.00
2018-04-30T07:14:32.356Z,3256.00
2018-04-30T07:15:31.420Z,4488.00
2018-04-30T07:16:31.467Z,4196.00
2018-04-30T07:17:31.418Z,4360.00
2018-04-30T07:18:31.732Z,3868.00
2018-04-30T07:19:32.357Z,3796.00
2018-04-30T07:20:31.525Z,3460.00
2018-04-30T07:21:31.463Z,3904.00
2018-04-30T07:22:31.477Z,3684.00
2018-04-30T07:23:31.545Z,3996.00
2018-04-30T07:24:31.495Z,4044.00
2018-04-30T07:25:31.454Z,4916.00
2018-04-30T07:26:31.480Z,5608.00
2018-04-30T07:27:31.524Z,6368.00
2018-04-30T07:28:31.519Z,6068.00
2018-04-30T07:29:31.497Z,7360.00
2018-04-30T07:30:31.506Z,5748.00
2018-04-30T07:31:31.527Z,6156.00
2018-04-30T07:32:31.595Z,6132.00
2018-04-30T07:33:31.475Z,4712.00
2018-04-30T07:34:31.474Z,5448.00
2018-04-30T07:35:31.527Z,4724.00
2018-04-30T07:36:31.527Z,5912.00
2018-04-30T07:37:31.536Z,5292.00
2018-04-30T07:38:31.527Z,4636.00
2018-04-30T07:39:31.512Z,3224.00
2018-04-30T07:40:31.572Z,2096.00
2018-04-30T07:41:31.510Z,1632.00
2018-04-30T07:42:31.488Z,1480.00
2018-04-30T07:43:31.495Z,2160.00
2018-04-30T07:44:31.535Z,2316.00
2018-04-30T07:45:31.496Z,3236.00
2018-04-30T07:46:31.509Z,2316.00
2018-04-30T07:47:31.557Z,2544.00
2018-04-30T07:48:31.546Z,2012.00
2018-04-30T07:49:31.507Z,2512.00
2018-04-30T07:50:31.519Z,3084.00
2018-04-30T07:51:31.514Z,3032.00
2018-04-30T07:52:31.831Z,3236.00
2018-04-30T07:53:31.516Z,3140.00
2018-04-30T07:54:31.589Z,2592.00
2018-04-30T07:55:31.524Z,2428.00
2018-04-30T07:56:31.533Z,2100.00
2018-04-30T07:57:31.551Z,2104.00
2018-04-30T07:58:31.582Z,2228.00
2018-04-30T07:59:31.541Z,2744.00
2018-04-30T08:00:31.569Z,2044.00
2018-04-30T08:01:31.567Z,2256.00
2018-04-30T08:02:31.540Z,2308.00
2018-04-30T08:03:31.550Z,1676.00
2018-04-30T08:04:31.556Z,1492.00
2018-04-30T08:05:31.577Z,1500.00
2018-04-30T08:06:31.555Z,1268.00
2018-04-30T08:07:31.545Z,1252.00
2018-04-30T08:08:31.691Z,1220.00
2018-04-30T08:09:31.587Z,1328.00
2018-04-30T08:10:31.717Z,1476.00
2018-04-30T08:11:31.595Z,1248.00
2018-04-30T08:12:31.603Z,1676.00
2018-04-30T08:13:31.612Z,1720.00
2018-04-30T08:14:31.683Z,1528.00
2018-04-30T08:15:31.639Z,1296.00
2018-04-30T08:16:31.605Z,1196.00
2018-04-30T08:17:31.606Z,1232.00
2018-04-30T08:18:31.572Z,1280.00
2018-04-30T08:19:31.597Z,1160.00
2018-04-30T08:20:31.631Z,1024.00
2018-04-30T08:21:31.675Z,1132.00
2018-04-30T08:22:31.760Z,940.00
2018-04-30T08:23:31.646Z,1184.00
2018-04-30T08:24:31.682Z,1608.00
2018-04-30T08:25:32.654Z,2148.00
2018-04-30T08:26:31.645Z,1876.00
2018-04-30T08:27:31.616Z,1628.00
2018-04-30T08:28:31.602Z,1112.00
2018-04-30T08:29:31.610Z,1016.00
2018-04-30T08:30:31.619Z,944.00
2018-04-30T08:31:31.636Z,1032.00
2018-04-30T08:32:31.630Z,932.00
2018-04-30T08:33:31.642Z,1208.00
2018-04-30T08:34:31.650Z,1404.00
2018-04-30T08:35:33.386Z,1832.00
2018-04-30T08:36:31.663Z,2444.00
2018-04-30T08:37:32.456Z,2328.00
2018-04-30T08:38:31.642Z,2768.00
2018-04-30T08:39:31.780Z,3248.00
2018-04-30T08:40:31.675Z,2760.00
2018-04-30T08:41:31.655Z,2708.00
2018-04-30T08:42:31.647Z,2744.00
2018-04-30T08:43:31.661Z,2092.00
2018-04-30T08:44:31.652Z,2488.00
2018-04-30T08:45:31.654Z,2060.00
2018-04-30T08:46:31.698Z,2548.00
2018-04-30T08:47:31.668Z,1996.00
2018-04-30T08:48:32.460Z,1752.00
2018-04-30T08:49:31.777Z,1376.00
2018-04-30T08:50:31.744Z,1148.00
2018-04-30T08:51:31.659Z,920.00
2018-04-30T08:52:31.663Z,1092.00
2018-04-30T08:53:31.680Z,1376.00
2018-04-30T08:54:31.646Z,2088.00
2018-04-30T08:55:31.706Z,2216.00
2018-04-30T08:56:31.697Z,2284.00
2018-04-30T08:57:31.676Z,4128.00
2018-04-30T08:58:31.707Z,4504.00
2018-04-30T08:59:31.702Z,4216.00
2018-04-30T09:00:31.710Z,4012.00
2018-04-30T09:01:31.671Z,4060.00
2018-04-30T09:02:31.715Z,4052.00
2018-04-30T09:03:31.697Z,4648.00
2018-04-30T09:04:31.728Z,4664.00
2018-04-30T09:05:31.701Z,4348.00
2018-04-30T09:06:31.704Z,4300.00
2018-04-30T09:07:31.695Z,4508.00
2018-04-30T09:08:31.704Z,5308.00
2018-04-30T09:09:31.699Z,6128.00
2018-04-30T09:10:31.707Z,6632.00
2018-04-30T09:11:31.729Z,6640.00
2018-04-30T09:12:31.812Z,6668.00
2018-04-30T09:13:31.725Z,6488.00
2018-04-30T09:14:31.720Z,6112.00
2018-04-30T09:15:31.753Z,6152.00
2018-04-30T09:16:31.715Z,7164.00
2018-04-30T09:17:31.721Z,4972.00
2018-04-30T09:18:31.737Z,5624.00
2018-04-30T09:19:31.741Z,4588.00
2018-04-30T09:20:31.839Z,4916.00
2018-04-30T09:21:31.730Z,5148.00
2018-04-30T09:22:31.751Z,5360.00
2018-04-30T09:23:31.764Z,5504.00
2018-04-30T09:24:31.730Z,5336.00
2018-04-30T09:25:31.736Z,5204.00
2018-04-30T09:26:31.741Z,5132.00
2018-04-30T09:27:31.751Z,5188.00
2018-04-30T09:28:31.738Z,5216.00
2018-04-30T09:29:31.749Z,5108.00
2018-04-30T09:30:31.763Z,5268.00
2018-04-30T09:31:31.739Z,5652.00
2018-04-30T09:32:31.768Z,6012.00
2018-04-30T09:33:31.762Z,6168.00
2018-04-30T09:34:31.759Z,6148.00
2018-04-30T09:35:31.754Z,5936.00
2018-04-30T09:36:31.748Z,5576.00
2018-04-30T09:37:31.774Z,4888.00
2018-04-30T09:38:31.797Z,4060.00
2018-04-30T09:39:31.997Z,3560.00
2018-04-30T09:40:31.814Z,3296.00
2018-04-30T09:41:31.822Z,3244.00
2018-04-30T09:42:31.841Z,3104.00
2018-04-30T09:43:31.876Z,2760.00
2018-04-30T09:44:31.810Z,2504.00
2018-04-30T09:45:32.056Z,2628.00
2018-04-30T09:46:32.558Z,2960.00
2018-04-30T09:47:31.907Z,3344.00
2018-04-30T09:48:31.789Z,3980.00
2018-04-30T09:49:31.911Z,4824.00
2018-04-30T09:50:31.828Z,4816.00
2018-04-30T09:51:31.852Z,4308.00
2018-04-30T09:52:31.853Z,4336.00
2018-04-30T09:53:31.808Z,4344.00
2018-04-30T09:54:31.852Z,4356.00
2018-04-30T09:55:31.917Z,4324.00
2018-04-30T09:56:31.916Z,4248.00
2018-04-30T09:57:31.838Z,4168.00
2018-04-30T09:58:31.814Z,4212.00
2018-04-30T09:59:31.811Z,4400.00
2018-04-30T10:00:31.833Z,4628.00
2018-04-30T10:01:31.927Z,4740.00
2018-04-30T10:02:31.820Z,4712.00
2018-04-30T10:03:31.847Z,4636.00
2018-04-30T10:04:31.835Z,4572.00
2018-04-30T10:05:31.852Z,4464.00
2018-04-30T10:06:31.838Z,4380.00
2018-04-30T10:07:31.946Z,4460.00
2018-04-30T10:08:32.409Z,4608.00
2018-04-30T10:09:31.874Z,4600.00
2018-04-30T10:10:31.900Z,4368.00
2018-04-30T10:11:31.878Z,4064.00
2018-04-30T10:12:31.847Z,3948.00
2018-04-30T10:13:31.854Z,4096.00
2018-04-30T10:14:31.851Z,4208.00
2018-04-30T10:15:31.867Z,3976.00
2018-04-30T10:16:31.858Z,3268.00
2018-04-30T10:17:31.855Z,2708.00
2018-04-30T10:18:31.862Z,2564.00
2018-04-30T10:19:31.859Z,2640.00
2018-04-30T10:20:31.929Z,2848.00
2018-04-30T10:21:31.936Z,3084.00
2018-04-30T10:22:31.883Z,3208.00
2018-04-30T10:23:31.952Z,3300.00
2018-04-30T10:24:31.890Z,3512.00
2018-04-30T10:25:31.886Z,3728.00
2018-04-30T10:26:31.898Z,4112.00
2018-04-30T10:27:31.939Z,4492.00
2018-04-30T10:28:31.972Z,4736.00
2018-04-30T10:29:31.886Z,4936.00
2018-04-30T10:30:32.414Z,5228.00
2018-04-30T10:31:32.014Z,5660.00
2018-04-30T10:32:31.911Z,6320.00
2018-04-30T10:33:31.906Z,7064.00
2018-04-30T10:34:31.918Z,7480.00
2018-04-30T10:35:31.892Z,7732.00
2018-04-30T10:36:31.901Z,7576.00
2018-04-30T10:37:31.899Z,7492.00
2018-04-30T10:38:31.901Z,7808.00
2018-04-30T10:39:31.947Z,8332.00
2018-04-30T10:40:31.902Z,8880.00
2018-04-30T10:41:31.927Z,9808.00
2018-04-30T10:42:31.929Z,11156.00
2018-04-30T10:43:32.049Z,13160.00
2018-04-30T10:44:31.928Z,12424.00
2018-04-30T10:45:31.924Z,11368.00
2018-04-30T10:46:31.928Z,10932.00
2018-04-30T10:47:31.931Z,11160.00
2018-04-30T10:48:32.014Z,10868.00
2018-04-30T10:49:31.945Z,10488.00
2018-04-30T10:50:31.939Z,10340.00
2018-04-30T10:51:31.963Z,10072.00
2018-04-30T10:52:31.940Z,9884.00
2018-04-30T10:53:31.953Z,9536.00
2018-04-30T10:54:31.994Z,9000.00
2018-04-30T10:55:31.948Z,8576.00
2018-04-30T10:56:31.964Z,8184.00
2018-04-30T10:57:31.975Z,7724.00
2018-04-30T10:58:31.977Z,7156.00
2018-04-30T10:59:31.993Z,6720.00
2018-04-30T11:02:06.079Z,6316.00
2018-04-30T22:00:59.812Z,0.00
2018-04-30T22:02:14.343Z,0.00
2018-04-30T22:02:59.369Z,0.00
2018-04-30T22:03:59.362Z,0.00
2018-04-30T22:10:44.624Z,0.00
2018-04-30T22:11:43.366Z,0.00
2018-04-30T22:12:40.024Z,0.00
2018-04-30T22:13:40.141Z,0.00
2018-04-30T22:14:40.206Z,0.00
2018-04-30T22:15:40.111Z,0.00
2018-04-30T22:16:40.265Z,0.00
2018-04-30T22:17:40.165Z,0.00
2018-04-30T22:18:40.224Z,0.00
2018-04-30T22:19:40.068Z,0.00
2018-04-30T22:20:40.083Z,0.00
2018-04-30T22:21:40.070Z,0.00
2018-04-30T22:22:40.085Z,0.00
2018-04-30T22:23:40.097Z,0.00
2018-04-30T22:24:40.107Z,0.00
2018-04-30T22:25:40.163Z,0.00
2018-04-30T22:26:40.085Z,0.00
2018-04-30T22:27:40.013Z,0.00
2018-04-30T22:28:40.086Z,0.00
2018-04-30T22:29:40.204Z,0.00
2018-04-30T22:30:40.126Z,0.00
2018-04-30T22:31:40.023Z,0.00
2018-04-30T22:32:40.198Z,0.00
2018-04-30T22:33:40.059Z,0.00
2018-04-30T22:34:40.101Z,0.00
2018-04-30T22:35:40.044Z,0.00
2018-04-30T22:36:40.144Z,0.00
2018-04-30T22:37:40.169Z,0.00
2018-04-30T22:38:40.884Z,0.00
2018-04-30T22:39:40.124Z,0.00
2018-04-30T22:40:40.174Z,0.00
2018-04-30T22:41:40.143Z,0.00
2018-04-30T22:42:40.190Z,0.00
2018-04-30T22:43:40.110Z,0.00
2018-04-30T22:44:40.117Z,0.00
2018-04-30T22:45:40.097Z,0.00
2018-04-30T22:46:40.281Z,0.00
2018-04-30T22:47:40.042Z,0.00
2018-04-30T22:48:40.145Z,0.00
2018-04-30T22:49:40.100Z,0.00
2018-04-30T22:50:40.148Z,0.00
2018-04-30T22:51:40.062Z,0.00
2018-04-30T22:52:40.240Z,0.00
2018-04-30T22:53:40.137Z,0.00
2018-04-30T22:54:40.100Z,0.00
2018-04-30T22:55:40.103Z,0.00
2018-04-30T22:56:40.128Z,0.00
2018-04-30T22:57:40.030Z,0.00
2018-04-30T22:58:40.060Z,0.00
2018-04-30T22:59:40.087Z,0.00
2018-04-30T23:00:40.080Z,0.00
2018-04-30T23:01:40.072Z,0.00
2018-04-30T23:02:40.359Z,0.00
2018-04-30T23:03:40.183Z,0.00
2018-04-30T23:04:40.096Z,0.00
2018-04-30T23:05:40.064Z,0.00
2018-04-30T23:06:40.261Z,0.00
2018-04-30T23:07:40.206Z,0.00
2018-04-30T23:08:40.159Z,0.00
2018-04-30T23:09:40.451Z,0.00
2018-04-30T23:10:43.059Z,0.00
2018-04-30T23:11:40.145Z,0.00
2018-04-30T23:12:40.101Z,0.00
2018-04-30T23:13:40.367Z,0.00
2018-04-30T23:14:40.266Z,0.00
2018-04-30T23:15:40.564Z,0.00
2018-04-30T23:16:40.330Z,0.00
2018-04-30T23:17:40.117Z,0.00
2018-04-30T23:18:40.134Z,0.00
2018-04-30T23:19:40.048Z,0.00
2018-04-30T23:20:40.110Z,0.00
2018-04-30T23:21:40.158Z,0.00
2018-04-30T23:22:40.240Z,0.00
2018-04-30T23:23:40.250Z,0.00
2018-04-30T23:24:40.231Z,0.00
2018-04-30T23:25:40.087Z,0.00
2018-04-30T23:26:40.175Z,0.00
2018-04-30T23:27:40.138Z,0.00
2018-04-30T23:28:40.147Z,0.00
2018-04-30T23:29:40.216Z,0.00
2018-04-30T23:30:40.266Z,0.00
2018-04-30T23:31:40.356Z,0.00
2018-04-30T23:32:40.898Z,0.00
2018-04-30T23:33:40.184Z,0.00
2018-04-30T23:34:40.216Z,0.00
2018-04-30T23:35:40.937Z,0.00
2018-04-30T23:36:40.155Z,0.00
2018-04-30T23:37:40.149Z,0.00
2018-04-30T23:38:40.259Z,0.00
2018-04-30T23:39:40.116Z,0.00
2018-04-30T23:40:40.238Z,0.00
2018-04-30T23:41:40.280Z,0.00
2018-04-30T23:42:40.286Z,0.00
2018-04-30T23:43:40.111Z,0.00
2018-04-30T23:44:40.218Z,0.00
2018-04-30T23:45:40.180Z,0.00
2018-04-30T23:46:40.172Z,0.00
2018-04-30T23:47:40.190Z,0.00
2018-04-30T23:48:40.270Z,0.00
2018-04-30T23:49:40.108Z,0.00